sensor_id;sensor_type;location;lat;lon;timestamp;P1;durP1;ratioP1;P2;durP2;ratioP2
46481;SDS011;32193;51.446;6.792;2022-07-12T00:02:13;6.97;;;2.30;;
46481;SDS011;32193;51.446;6.792;2022-07-12T00:04:38;11.77;;;2.50;;
46481;SDS011;32193;51.446;6.792;2022-07-12T00:07:05;6.80;;;2.40;;
46481;SDS011;32193;51.446;6.792;2022-07-12T00:09:30;7.82;;;2.88;;
46481;SDS011;32193;51.446;6.792;2022-07-12T00:11:56;7.57;;;2.67;;
46481;SDS011;32193;51.446;6.792;2022-07-12T00:14:23;9.93;;;2.70;;
46481;SDS011;32193;51.446;6.792;2022-07-12T00:16:49;7.25;;;2.65;;
46481;SDS011;32193;51.446;6.792;2022-07-12T00:19:14;6.28;;;2.20;;
46481;SDS011;32193;51.446;6.792;2022-07-12T00:21:40;9.95;;;2.40;;
46481;SDS011;32193;51.446;6.792;2022-07-12T00:24:05;7.13;;;2.42;;
46481;SDS011;32193;51.446;6.792;2022-07-12T00:26:31;6.50;;;2.70;;
46481;SDS011;32193;51.446;6.792;2022-07-12T00:28:57;7.25;;;2.45;;
46481;SDS011;32193;51.446;6.792;2022-07-12T00:31:23;9.40;;;2.65;;
46481;SDS011;32193;51.446;6.792;2022-07-12T00:33:49;7.78;;;2.00;;
46481;SDS011;32193;51.446;6.792;2022-07-12T00:36:15;9.48;;;2.13;;
46481;SDS011;32193;51.446;6.792;2022-07-12T00:38:44;7.70;;;2.45;;
46481;SDS011;32193;51.446;6.792;2022-07-12T00:41:10;5.65;;;2.20;;
46481;SDS011;32193;51.446;6.792;2022-07-12T00:43:37;5.88;;;2.53;;
46481;SDS011;32193;51.446;6.792;2022-07-12T00:46:02;5.85;;;2.45;;
46481;SDS011;32193;51.446;6.792;2022-07-12T00:48:28;6.65;;;2.45;;
46481;SDS011;32193;51.446;6.792;2022-07-12T00:50:57;5.75;;;2.35;;
46481;SDS011;32193;51.446;6.792;2022-07-12T00:53:23;7.65;;;2.60;;
46481;SDS011;32193;51.446;6.792;2022-07-12T00:55:57;8.75;;;2.85;;
46481;SDS011;32193;51.446;6.792;2022-07-12T00:58:24;6.70;;;2.38;;
46481;SDS011;32193;51.446;6.792;2022-07-12T01:00:50;8.75;;;2.58;;
46481;SDS011;32193;51.446;6.792;2022-07-12T01:03:16;7.80;;;2.47;;
46481;SDS011;32193;51.446;6.792;2022-07-12T01:05:43;7.30;;;2.30;;
46481;SDS011;32193;51.446;6.792;2022-07-12T01:08:09;8.50;;;2.53;;
46481;SDS011;32193;51.446;6.792;2022-07-12T01:10:36;6.05;;;2.40;;
46481;SDS011;32193;51.446;6.792;2022-07-12T01:13:03;5.88;;;2.50;;
46481;SDS011;32193;51.446;6.792;2022-07-12T01:15:29;7.13;;;2.22;;
46481;SDS011;32193;51.446;6.792;2022-07-12T01:17:56;7.55;;;2.38;;
46481;SDS011;32193;51.446;6.792;2022-07-12T01:20:22;8.43;;;2.10;;
46481;SDS011;32193;51.446;6.792;2022-07-12T01:22:55;8.68;;;2.33;;
46481;SDS011;32193;51.446;6.792;2022-07-12T01:25:24;5.75;;;2.13;;
46481;SDS011;32193;51.446;6.792;2022-07-12T01:27:50;5.72;;;2.13;;
46481;SDS011;32193;51.446;6.792;2022-07-12T01:30:17;9.70;;;3.08;;
46481;SDS011;32193;51.446;6.792;2022-07-12T01:32:43;6.32;;;2.30;;
46481;SDS011;32193;51.446;6.792;2022-07-12T01:35:08;7.88;;;2.83;;
46481;SDS011;32193;51.446;6.792;2022-07-12T01:37:38;5.40;;;1.80;;
46481;SDS011;32193;51.446;6.792;2022-07-12T01:40:08;6.85;;;2.05;;
46481;SDS011;32193;51.446;6.792;2022-07-12T01:42:35;5.78;;;1.90;;
46481;SDS011;32193;51.446;6.792;2022-07-12T01:45:02;5.28;;;2.08;;
46481;SDS011;32193;51.446;6.792;2022-07-12T01:47:30;6.53;;;2.00;;
46481;SDS011;32193;51.446;6.792;2022-07-12T01:49:56;6.00;;;2.22;;
46481;SDS011;32193;51.446;6.792;2022-07-12T01:52:23;6.05;;;2.00;;
46481;SDS011;32193;51.446;6.792;2022-07-12T01:54:48;6.05;;;2.03;;
46481;SDS011;32193;51.446;6.792;2022-07-12T01:57:15;7.03;;;2.10;;
46481;SDS011;32193;51.446;6.792;2022-07-12T01:59:41;7.15;;;2.40;;
46481;SDS011;32193;51.446;6.792;2022-07-12T02:02:07;8.50;;;2.45;;
46481;SDS011;32193;51.446;6.792;2022-07-12T02:04:33;8.23;;;2.67;;
46481;SDS011;32193;51.446;6.792;2022-07-12T02:06:59;6.10;;;2.00;;
46481;SDS011;32193;51.446;6.792;2022-07-12T02:09:25;5.63;;;2.00;;
46481;SDS011;32193;51.446;6.792;2022-07-12T02:11:52;5.45;;;2.20;;
46481;SDS011;32193;51.446;6.792;2022-07-12T02:14:18;5.28;;;2.40;;
46481;SDS011;32193;51.446;6.792;2022-07-12T02:16:44;5.88;;;2.13;;
46481;SDS011;32193;51.446;6.792;2022-07-12T02:19:10;4.97;;;2.10;;
46481;SDS011;32193;51.446;6.792;2022-07-12T02:21:36;5.75;;;2.20;;
46481;SDS011;32193;51.446;6.792;2022-07-12T02:24:03;7.20;;;2.13;;
46481;SDS011;32193;51.446;6.792;2022-07-12T02:26:29;6.22;;;2.30;;
46481;SDS011;32193;51.446;6.792;2022-07-12T02:28:56;5.45;;;2.20;;
46481;SDS011;32193;51.446;6.792;2022-07-12T02:31:21;5.75;;;2.08;;
46481;SDS011;32193;51.446;6.792;2022-07-12T02:33:47;4.97;;;2.28;;
46481;SDS011;32193;51.446;6.792;2022-07-12T02:36:13;7.65;;;2.78;;
46481;SDS011;32193;51.446;6.792;2022-07-12T02:38:39;6.68;;;2.20;;
46481;SDS011;32193;51.446;6.792;2022-07-12T02:41:05;8.10;;;2.65;;
46481;SDS011;32193;51.446;6.792;2022-07-12T02:43:30;5.30;;;2.13;;
46481;SDS011;32193;51.446;6.792;2022-07-12T02:46:17;6.05;;;2.42;;
46481;SDS011;32193;51.446;6.792;2022-07-12T02:48:42;6.20;;;2.65;;
46481;SDS011;32193;51.446;6.792;2022-07-12T02:51:08;6.43;;;2.63;;
46481;SDS011;32193;51.446;6.792;2022-07-12T02:53:35;6.00;;;2.45;;
46481;SDS011;32193;51.446;6.792;2022-07-12T02:56:01;7.60;;;2.55;;
46481;SDS011;32193;51.446;6.792;2022-07-12T02:58:27;7.85;;;2.50;;
46481;SDS011;32193;51.446;6.792;2022-07-12T03:00:54;5.57;;;2.28;;
46481;SDS011;32193;51.446;6.792;2022-07-12T03:03:20;5.22;;;2.08;;
46481;SDS011;32193;51.446;6.792;2022-07-12T03:05:46;7.10;;;2.58;;
46481;SDS011;32193;51.446;6.792;2022-07-12T03:08:11;6.00;;;2.28;;
46481;SDS011;32193;51.446;6.792;2022-07-12T03:10:38;6.95;;;2.28;;
46481;SDS011;32193;51.446;6.792;2022-07-12T03:13:04;8.05;;;2.58;;
46481;SDS011;32193;51.446;6.792;2022-07-12T03:15:30;7.10;;;3.13;;
46481;SDS011;32193;51.446;6.792;2022-07-12T03:17:57;6.53;;;2.67;;
46481;SDS011;32193;51.446;6.792;2022-07-12T03:20:24;5.70;;;2.50;;
46481;SDS011;32193;51.446;6.792;2022-07-12T03:22:49;8.25;;;3.42;;
46481;SDS011;32193;51.446;6.792;2022-07-12T03:25:17;8.18;;;3.25;;
46481;SDS011;32193;51.446;6.792;2022-07-12T03:27:43;8.93;;;3.17;;
46481;SDS011;32193;51.446;6.792;2022-07-12T03:30:09;7.80;;;3.70;;
46481;SDS011;32193;51.446;6.792;2022-07-12T03:32:35;8.73;;;3.67;;
46481;SDS011;32193;51.446;6.792;2022-07-12T03:35:01;8.95;;;3.90;;
46481;SDS011;32193;51.446;6.792;2022-07-12T03:37:38;8.35;;;3.40;;
46481;SDS011;32193;51.446;6.792;2022-07-12T03:40:04;8.43;;;2.80;;
46481;SDS011;32193;51.446;6.792;2022-07-12T03:42:30;9.18;;;2.80;;
46481;SDS011;32193;51.446;6.792;2022-07-12T03:44:56;10.13;;;3.00;;
46481;SDS011;32193;51.446;6.792;2022-07-12T03:47:22;7.55;;;3.22;;
46481;SDS011;32193;51.446;6.792;2022-07-12T03:49:48;7.22;;;3.15;;
46481;SDS011;32193;51.446;6.792;2022-07-12T03:52:13;8.38;;;3.30;;
46481;SDS011;32193;51.446;6.792;2022-07-12T03:54:39;8.48;;;2.80;;
46481;SDS011;32193;51.446;6.792;2022-07-12T03:57:05;7.07;;;3.08;;
46481;SDS011;32193;51.446;6.792;2022-07-12T03:59:39;6.93;;;2.65;;
46481;SDS011;32193;51.446;6.792;2022-07-12T04:02:05;6.53;;;3.13;;
46481;SDS011;32193;51.446;6.792;2022-07-12T04:04:31;5.72;;;2.72;;
46481;SDS011;32193;51.446;6.792;2022-07-12T04:06:57;9.77;;;3.22;;
46481;SDS011;32193;51.446;6.792;2022-07-12T04:09:23;18.27;;;3.63;;
46481;SDS011;32193;51.446;6.792;2022-07-12T04:11:49;10.15;;;5.03;;
46481;SDS011;32193;51.446;6.792;2022-07-12T04:14:15;8.85;;;3.20;;
46481;SDS011;32193;51.446;6.792;2022-07-12T04:16:41;7.47;;;3.17;;
46481;SDS011;32193;51.446;6.792;2022-07-12T04:19:07;6.93;;;3.05;;
46481;SDS011;32193;51.446;6.792;2022-07-12T04:21:34;5.82;;;2.35;;
46481;SDS011;32193;51.446;6.792;2022-07-12T04:24:00;8.73;;;3.10;;
46481;SDS011;32193;51.446;6.792;2022-07-12T04:26:26;9.02;;;2.90;;
46481;SDS011;32193;51.446;6.792;2022-07-12T04:28:52;6.35;;;2.78;;
46481;SDS011;32193;51.446;6.792;2022-07-12T04:31:18;6.18;;;2.65;;
46481;SDS011;32193;51.446;6.792;2022-07-12T04:33:44;5.32;;;2.17;;
46481;SDS011;32193;51.446;6.792;2022-07-12T04:36:10;7.50;;;2.50;;
46481;SDS011;32193;51.446;6.792;2022-07-12T04:38:36;10.18;;;2.63;;
46481;SDS011;32193;51.446;6.792;2022-07-12T04:41:01;9.57;;;2.30;;
46481;SDS011;32193;51.446;6.792;2022-07-12T04:43:27;9.50;;;2.03;;
46481;SDS011;32193;51.446;6.792;2022-07-12T04:45:55;6.15;;;2.15;;
46481;SDS011;32193;51.446;6.792;2022-07-12T04:48:21;6.50;;;2.40;;
46481;SDS011;32193;51.446;6.792;2022-07-12T04:50:47;7.95;;;2.63;;
46481;SDS011;32193;51.446;6.792;2022-07-12T04:53:13;9.07;;;2.08;;
46481;SDS011;32193;51.446;6.792;2022-07-12T04:55:39;6.90;;;2.08;;
46481;SDS011;32193;51.446;6.792;2022-07-12T04:58:04;8.05;;;2.70;;
46481;SDS011;32193;51.446;6.792;2022-07-12T05:00:30;8.18;;;2.40;;
46481;SDS011;32193;51.446;6.792;2022-07-12T05:02:56;7.32;;;2.67;;
46481;SDS011;32193;51.446;6.792;2022-07-12T05:05:22;8.48;;;2.50;;
46481;SDS011;32193;51.446;6.792;2022-07-12T05:07:48;11.07;;;2.85;;
46481;SDS011;32193;51.446;6.792;2022-07-12T05:10:13;6.35;;;2.58;;
46481;SDS011;32193;51.446;6.792;2022-07-12T05:12:39;5.78;;;2.63;;
46481;SDS011;32193;51.446;6.792;2022-07-12T05:15:05;5.68;;;2.78;;
46481;SDS011;32193;51.446;6.792;2022-07-12T05:17:32;6.80;;;3.22;;
46481;SDS011;32193;51.446;6.792;2022-07-12T05:19:58;7.97;;;3.20;;
46481;SDS011;32193;51.446;6.792;2022-07-12T05:22:23;11.88;;;2.40;;
46481;SDS011;32193;51.446;6.792;2022-07-12T05:24:49;5.18;;;2.40;;
46481;SDS011;32193;51.446;6.792;2022-07-12T05:27:15;5.20;;;2.40;;
46481;SDS011;32193;51.446;6.792;2022-07-12T05:29:41;8.73;;;2.10;;
46481;SDS011;32193;51.446;6.792;2022-07-12T05:32:07;6.75;;;2.38;;
46481;SDS011;32193;51.446;6.792;2022-07-12T05:34:33;5.45;;;2.22;;
46481;SDS011;32193;51.446;6.792;2022-07-12T05:36:59;6.90;;;2.40;;
46481;SDS011;32193;51.446;6.792;2022-07-12T05:39:25;6.28;;;2.92;;
46481;SDS011;32193;51.446;6.792;2022-07-12T05:41:51;7.70;;;3.30;;
46481;SDS011;32193;51.446;6.792;2022-07-12T05:44:17;7.60;;;3.90;;
46481;SDS011;32193;51.446;6.792;2022-07-12T05:46:44;7.43;;;4.38;;
46481;SDS011;32193;51.446;6.792;2022-07-12T05:49:10;9.35;;;5.75;;
46481;SDS011;32193;51.446;6.792;2022-07-12T05:51:36;8.50;;;5.78;;
46481;SDS011;32193;51.446;6.792;2022-07-12T05:56:46;10.23;;;6.20;;
46481;SDS011;32193;51.446;6.792;2022-07-12T05:59:11;10.43;;;6.57;;
46481;SDS011;32193;51.446;6.792;2022-07-12T06:01:37;28.75;;;20.67;;
46481;SDS011;32193;51.446;6.792;2022-07-12T06:04:03;13.77;;;7.78;;
46481;SDS011;32193;51.446;6.792;2022-07-12T06:06:29;10.45;;;6.50;;
46481;SDS011;32193;51.446;6.792;2022-07-12T06:08:55;9.13;;;5.68;;
46481;SDS011;32193;51.446;6.792;2022-07-12T06:11:21;10.93;;;5.80;;
46481;SDS011;32193;51.446;6.792;2022-07-12T06:13:47;8.98;;;5.75;;
46481;SDS011;32193;51.446;6.792;2022-07-12T06:16:14;11.93;;;6.55;;
46481;SDS011;32193;51.446;6.792;2022-07-12T06:18:40;15.73;;;7.13;;
46481;SDS011;32193;51.446;6.792;2022-07-12T06:21:05;12.00;;;7.10;;
46481;SDS011;32193;51.446;6.792;2022-07-12T06:23:31;11.45;;;7.65;;
46481;SDS011;32193;51.446;6.792;2022-07-12T06:25:57;12.75;;;6.93;;
46481;SDS011;32193;51.446;6.792;2022-07-12T06:28:23;12.43;;;7.22;;
46481;SDS011;32193;51.446;6.792;2022-07-12T06:30:49;9.90;;;6.82;;
46481;SDS011;32193;51.446;6.792;2022-07-12T06:33:15;12.35;;;7.60;;
46481;SDS011;32193;51.446;6.792;2022-07-12T06:35:41;11.63;;;7.88;;
46481;SDS011;32193;51.446;6.792;2022-07-12T06:38:07;12.88;;;8.23;;
46481;SDS011;32193;51.446;6.792;2022-07-12T06:40:33;11.52;;;7.65;;
46481;SDS011;32193;51.446;6.792;2022-07-12T06:42:59;13.45;;;8.40;;
46481;SDS011;32193;51.446;6.792;2022-07-12T06:45:25;11.82;;;7.28;;
46481;SDS011;32193;51.446;6.792;2022-07-12T06:47:51;12.95;;;6.88;;
46481;SDS011;32193;51.446;6.792;2022-07-12T06:50:17;18.42;;;7.53;;
46481;SDS011;32193;51.446;6.792;2022-07-12T06:52:43;9.52;;;5.88;;
46481;SDS011;32193;51.446;6.792;2022-07-12T06:55:09;9.80;;;6.63;;
46481;SDS011;32193;51.446;6.792;2022-07-12T06:57:35;14.05;;;7.50;;
46481;SDS011;32193;51.446;6.792;2022-07-12T07:00:02;11.02;;;7.03;;
46481;SDS011;32193;51.446;6.792;2022-07-12T07:02:29;10.05;;;6.43;;
46481;SDS011;32193;51.446;6.792;2022-07-12T07:04:55;11.32;;;5.90;;
46481;SDS011;32193;51.446;6.792;2022-07-12T07:07:21;7.70;;;5.43;;
46481;SDS011;32193;51.446;6.792;2022-07-12T07:09:46;11.00;;;6.18;;
46481;SDS011;32193;51.446;6.792;2022-07-12T07:12:12;9.60;;;5.35;;
46481;SDS011;32193;51.446;6.792;2022-07-12T07:14:38;9.57;;;5.65;;
46481;SDS011;32193;51.446;6.792;2022-07-12T07:17:04;10.27;;;5.85;;
46481;SDS011;32193;51.446;6.792;2022-07-12T07:19:31;13.32;;;5.78;;
46481;SDS011;32193;51.446;6.792;2022-07-12T07:21:56;12.98;;;6.00;;
46481;SDS011;32193;51.446;6.792;2022-07-12T07:24:23;9.73;;;5.45;;
46481;SDS011;32193;51.446;6.792;2022-07-12T07:26:50;9.57;;;5.80;;
46481;SDS011;32193;51.446;6.792;2022-07-12T07:29:16;11.55;;;5.40;;
46481;SDS011;32193;51.446;6.792;2022-07-12T07:32:00;12.25;;;5.32;;
46481;SDS011;32193;51.446;6.792;2022-07-12T07:34:25;10.85;;;4.90;;
46481;SDS011;32193;51.446;6.792;2022-07-12T07:36:52;10.10;;;4.90;;
46481;SDS011;32193;51.446;6.792;2022-07-12T07:39:18;11.32;;;4.60;;
46481;SDS011;32193;51.446;6.792;2022-07-12T07:41:44;12.32;;;5.35;;
46481;SDS011;32193;51.446;6.792;2022-07-12T07:44:10;9.90;;;4.57;;
46481;SDS011;32193;51.446;6.792;2022-07-12T07:46:36;10.32;;;5.13;;
46481;SDS011;32193;51.446;6.792;2022-07-12T07:49:02;8.45;;;4.50;;
46481;SDS011;32193;51.446;6.792;2022-07-12T07:51:28;21.08;;;6.65;;
46481;SDS011;32193;51.446;6.792;2022-07-12T07:53:54;13.93;;;5.93;;
46481;SDS011;32193;51.446;6.792;2022-07-12T07:56:20;14.88;;;5.35;;
46481;SDS011;32193;51.446;6.792;2022-07-12T07:58:46;12.05;;;4.75;;
46481;SDS011;32193;51.446;6.792;2022-07-12T08:01:12;14.95;;;5.38;;
46481;SDS011;32193;51.446;6.792;2022-07-12T08:03:38;14.80;;;4.65;;
46481;SDS011;32193;51.446;6.792;2022-07-12T08:06:04;15.63;;;5.97;;
46481;SDS011;32193;51.446;6.792;2022-07-12T08:08:30;12.95;;;5.63;;
46481;SDS011;32193;51.446;6.792;2022-07-12T08:10:56;12.90;;;4.93;;
46481;SDS011;32193;51.446;6.792;2022-07-12T08:13:22;12.57;;;5.47;;
46481;SDS011;32193;51.446;6.792;2022-07-12T08:15:48;15.52;;;6.78;;
46481;SDS011;32193;51.446;6.792;2022-07-12T08:18:14;13.38;;;6.78;;
46481;SDS011;32193;51.446;6.792;2022-07-12T08:20:39;13.88;;;6.32;;
46481;SDS011;32193;51.446;6.792;2022-07-12T08:23:05;14.98;;;6.40;;
46481;SDS011;32193;51.446;6.792;2022-07-12T08:25:31;22.40;;;7.15;;
46481;SDS011;32193;51.446;6.792;2022-07-12T08:27:57;14.90;;;6.30;;
46481;SDS011;32193;51.446;6.792;2022-07-12T08:30:23;24.40;;;8.55;;
46481;SDS011;32193;51.446;6.792;2022-07-12T08:32:48;16.70;;;6.32;;
46481;SDS011;32193;51.446;6.792;2022-07-12T08:35:14;20.83;;;9.05;;
46481;SDS011;32193;51.446;6.792;2022-07-12T08:37:41;21.83;;;9.32;;
46481;SDS011;32193;51.446;6.792;2022-07-12T08:40:07;18.40;;;7.93;;
46481;SDS011;32193;51.446;6.792;2022-07-12T08:42:34;19.13;;;7.07;;
46481;SDS011;32193;51.446;6.792;2022-07-12T08:45:00;12.82;;;5.90;;
46481;SDS011;32193;51.446;6.792;2022-07-12T08:47:26;15.02;;;6.18;;
46481;SDS011;32193;51.446;6.792;2022-07-12T08:52:46;15.48;;;6.97;;
46481;SDS011;32193;51.446;6.792;2022-07-12T08:57:44;13.23;;;5.78;;
46481;SDS011;32193;51.446;6.792;2022-07-12T09:00:10;14.52;;;5.68;;
46481;SDS011;32193;51.446;6.792;2022-07-12T09:02:43;12.77;;;5.70;;
46481;SDS011;32193;51.446;6.792;2022-07-12T09:05:10;11.85;;;5.95;;
46481;SDS011;32193;51.446;6.792;2022-07-12T09:07:36;11.60;;;5.85;;
46481;SDS011;32193;51.446;6.792;2022-07-12T09:10:09;14.48;;;5.63;;
46481;SDS011;32193;51.446;6.792;2022-07-12T09:12:35;10.68;;;5.07;;
46481;SDS011;32193;51.446;6.792;2022-07-12T09:15:11;8.27;;;4.03;;
46481;SDS011;32193;51.446;6.792;2022-07-12T09:17:37;12.23;;;4.10;;
46481;SDS011;32193;51.446;6.792;2022-07-12T09:20:03;7.65;;;3.72;;
46481;SDS011;32193;51.446;6.792;2022-07-12T09:22:29;9.77;;;3.42;;
46481;SDS011;32193;51.446;6.792;2022-07-12T09:24:55;9.05;;;3.50;;
46481;SDS011;32193;51.446;6.792;2022-07-12T09:27:25;10.13;;;3.63;;
46481;SDS011;32193;51.446;6.792;2022-07-12T09:29:51;11.80;;;3.40;;
46481;SDS011;32193;51.446;6.792;2022-07-12T09:32:17;9.85;;;3.20;;
46481;SDS011;32193;51.446;6.792;2022-07-12T09:35:02;9.30;;;4.07;;
46481;SDS011;32193;51.446;6.792;2022-07-12T09:37:48;9.70;;;3.30;;
46481;SDS011;32193;51.446;6.792;2022-07-12T09:40:14;7.40;;;3.88;;
46481;SDS011;32193;51.446;6.792;2022-07-12T09:42:40;9.18;;;3.97;;
46481;SDS011;32193;51.446;6.792;2022-07-12T09:45:09;9.80;;;3.13;;
46481;SDS011;32193;51.446;6.792;2022-07-12T09:47:35;8.50;;;3.25;;
46481;SDS011;32193;51.446;6.792;2022-07-12T09:50:02;8.68;;;2.72;;
46481;SDS011;32193;51.446;6.792;2022-07-12T09:52:29;7.35;;;3.20;;
46481;SDS011;32193;51.446;6.792;2022-07-12T09:54:57;7.32;;;3.13;;
46481;SDS011;32193;51.446;6.792;2022-07-12T09:57:27;8.30;;;3.20;;
46481;SDS011;32193;51.446;6.792;2022-07-12T09:59:53;6.68;;;2.90;;
46481;SDS011;32193;51.446;6.792;2022-07-12T10:02:22;6.90;;;2.65;;
46481;SDS011;32193;51.446;6.792;2022-07-12T10:04:49;5.53;;;1.90;;
46481;SDS011;32193;51.446;6.792;2022-07-12T10:07:15;5.65;;;2.00;;
46481;SDS011;32193;51.446;6.792;2022-07-12T10:09:42;5.60;;;1.95;;
46481;SDS011;32193;51.446;6.792;2022-07-12T10:12:10;7.68;;;2.22;;
46481;SDS011;32193;51.446;6.792;2022-07-12T10:14:36;7.72;;;2.40;;
46481;SDS011;32193;51.446;6.792;2022-07-12T10:17:04;5.78;;;1.90;;
46481;SDS011;32193;51.446;6.792;2022-07-12T10:19:34;6.53;;;2.03;;
46481;SDS011;32193;51.446;6.792;2022-07-12T10:22:01;5.85;;;2.20;;
46481;SDS011;32193;51.446;6.792;2022-07-12T10:29:44;4.70;;;1.80;;
46481;SDS011;32193;51.446;6.792;2022-07-12T10:32:26;4.78;;;1.73;;
46481;SDS011;32193;51.446;6.792;2022-07-12T10:37:28;5.68;;;2.50;;
46481;SDS011;32193;51.446;6.792;2022-07-12T10:42:35;5.90;;;2.63;;
46481;SDS011;32193;51.446;6.792;2022-07-12T10:45:11;7.55;;;2.85;;
46481;SDS011;32193;51.446;6.792;2022-07-12T10:47:54;4.18;;;1.58;;
46481;SDS011;32193;51.446;6.792;2022-07-12T10:53:21;6.80;;;2.45;;
46481;SDS011;32193;51.446;6.792;2022-07-12T11:01:07;8.13;;;2.05;;
46481;SDS011;32193;51.446;6.792;2022-07-12T11:03:43;4.00;;;1.80;;
46481;SDS011;32193;51.446;6.792;2022-07-12T11:06:16;4.28;;;1.42;;
46481;SDS011;32193;51.446;6.792;2022-07-12T11:08:46;4.20;;;1.23;;
46481;SDS011;32193;51.446;6.792;2022-07-12T11:11:12;3.97;;;1.40;;
46481;SDS011;32193;51.446;6.792;2022-07-12T11:13:38;5.57;;;1.60;;
46481;SDS011;32193;51.446;6.792;2022-07-12T11:16:04;3.58;;;1.13;;
46481;SDS011;32193;51.446;6.792;2022-07-12T11:18:31;4.50;;;1.40;;
46481;SDS011;32193;51.446;6.792;2022-07-12T11:20:58;3.45;;;1.20;;
46481;SDS011;32193;51.446;6.792;2022-07-12T11:23:25;3.97;;;1.33;;
46481;SDS011;32193;51.446;6.792;2022-07-12T11:25:59;6.57;;;1.98;;
46481;SDS011;32193;51.446;6.792;2022-07-12T11:28:26;8.88;;;3.22;;
46481;SDS011;32193;51.446;6.792;2022-07-12T11:31:02;9.35;;;3.05;;
46481;SDS011;32193;51.446;6.792;2022-07-12T11:33:29;5.82;;;1.90;;
46481;SDS011;32193;51.446;6.792;2022-07-12T11:35:58;6.35;;;1.73;;
46481;SDS011;32193;51.446;6.792;2022-07-12T11:38:25;6.53;;;1.80;;
46481;SDS011;32193;51.446;6.792;2022-07-12T11:40:57;7.93;;;1.95;;
46481;SDS011;32193;51.446;6.792;2022-07-12T11:45:50;8.05;;;2.38;;
46481;SDS011;32193;51.446;6.792;2022-07-12T11:48:17;8.13;;;1.60;;
46481;SDS011;32193;51.446;6.792;2022-07-12T11:50:43;4.15;;;1.60;;
46481;SDS011;32193;51.446;6.792;2022-07-12T11:53:48;7.60;;;1.92;;
46481;SDS011;32193;51.446;6.792;2022-07-12T11:56:05;4.97;;;1.98;;
46481;SDS011;32193;51.446;6.792;2022-07-12T11:58:32;5.80;;;1.80;;
46481;SDS011;32193;51.446;6.792;2022-07-12T12:00:59;5.95;;;1.80;;
46481;SDS011;32193;51.446;6.792;2022-07-12T12:03:25;4.82;;;1.95;;
46481;SDS011;32193;51.446;6.792;2022-07-12T12:05:52;6.68;;;1.77;;
46481;SDS011;32193;51.446;6.792;2022-07-12T12:08:18;6.45;;;1.73;;
46481;SDS011;32193;51.446;6.792;2022-07-12T12:10:52;6.40;;;1.60;;
46481;SDS011;32193;51.446;6.792;2022-07-12T12:13:22;5.35;;;1.70;;
46481;SDS011;32193;51.446;6.792;2022-07-12T12:15:49;6.75;;;2.00;;
46481;SDS011;32193;51.446;6.792;2022-07-12T12:18:16;6.63;;;1.40;;
46481;SDS011;32193;51.446;6.792;2022-07-12T12:20:42;4.30;;;1.50;;
46481;SDS011;32193;51.446;6.792;2022-07-12T12:23:19;4.85;;;1.40;;
46481;SDS011;32193;51.446;6.792;2022-07-12T12:25:45;4.72;;;1.25;;
46481;SDS011;32193;51.446;6.792;2022-07-12T12:28:11;4.03;;;1.20;;
46481;SDS011;32193;51.446;6.792;2022-07-12T12:30:48;5.55;;;2.00;;
46481;SDS011;32193;51.446;6.792;2022-07-12T12:33:32;9.40;;;2.08;;
46481;SDS011;32193;51.446;6.792;2022-07-12T12:36:45;6.13;;;2.40;;
46481;SDS011;32193;51.446;6.792;2022-07-12T12:38:47;7.07;;;2.78;;
46481;SDS011;32193;51.446;6.792;2022-07-12T12:41:13;8.38;;;2.47;;
46481;SDS011;32193;51.446;6.792;2022-07-12T12:43:40;5.95;;;2.33;;
46481;SDS011;32193;51.446;6.792;2022-07-12T12:46:06;9.00;;;2.65;;
46481;SDS011;32193;51.446;6.792;2022-07-12T12:48:32;6.10;;;2.45;;
46481;SDS011;32193;51.446;6.792;2022-07-12T12:51:02;5.80;;;2.10;;
46481;SDS011;32193;51.446;6.792;2022-07-12T12:53:28;6.50;;;2.15;;
46481;SDS011;32193;51.446;6.792;2022-07-12T12:55:54;8.43;;;2.83;;
46481;SDS011;32193;51.446;6.792;2022-07-12T12:58:21;7.07;;;2.45;;
46481;SDS011;32193;51.446;6.792;2022-07-12T13:00:49;7.18;;;3.03;;
46481;SDS011;32193;51.446;6.792;2022-07-12T13:03:17;7.93;;;2.63;;
46481;SDS011;32193;51.446;6.792;2022-07-12T13:05:43;8.32;;;2.63;;
46481;SDS011;32193;51.446;6.792;2022-07-12T13:08:09;6.72;;;2.63;;
46481;SDS011;32193;51.446;6.792;2022-07-12T13:10:36;13.27;;;3.08;;
46481;SDS011;32193;51.446;6.792;2022-07-12T13:13:02;7.22;;;2.90;;
46481;SDS011;32193;51.446;6.792;2022-07-12T13:15:29;12.13;;;2.90;;
46481;SDS011;32193;51.446;6.792;2022-07-12T13:17:55;8.57;;;2.72;;
46481;SDS011;32193;51.446;6.792;2022-07-12T13:20:22;11.10;;;3.40;;
46481;SDS011;32193;51.446;6.792;2022-07-12T13:22:48;10.48;;;3.55;;
46481;SDS011;32193;51.446;6.792;2022-07-12T13:25:14;6.53;;;2.42;;
46481;SDS011;32193;51.446;6.792;2022-07-12T13:27:40;21.05;;;3.67;;
46481;SDS011;32193;51.446;6.792;2022-07-12T13:30:07;14.00;;;3.00;;
46481;SDS011;32193;51.446;6.792;2022-07-12T13:32:35;8.93;;;2.60;;
46481;SDS011;32193;51.446;6.792;2022-07-12T13:35:01;8.52;;;2.53;;
46481;SDS011;32193;51.446;6.792;2022-07-12T13:37:28;10.25;;;2.97;;
46481;SDS011;32193;51.446;6.792;2022-07-12T13:39:54;7.55;;;2.60;;
46481;SDS011;32193;51.446;6.792;2022-07-12T13:45:12;8.93;;;2.95;;
46481;SDS011;32193;51.446;6.792;2022-07-12T13:47:38;6.47;;;2.72;;
46481;SDS011;32193;51.446;6.792;2022-07-12T13:50:05;12.65;;;3.35;;
46481;SDS011;32193;51.446;6.792;2022-07-12T13:52:31;9.20;;;3.03;;
46481;SDS011;32193;51.446;6.792;2022-07-12T13:54:57;10.73;;;3.05;;
46481;SDS011;32193;51.446;6.792;2022-07-12T13:57:23;8.70;;;3.22;;
46481;SDS011;32193;51.446;6.792;2022-07-12T13:59:49;11.82;;;2.97;;
46481;SDS011;32193;51.446;6.792;2022-07-12T14:02:16;8.10;;;2.42;;
46481;SDS011;32193;51.446;6.792;2022-07-12T14:04:41;11.68;;;3.33;;
46481;SDS011;32193;51.446;6.792;2022-07-12T14:07:07;9.90;;;2.83;;
46481;SDS011;32193;51.446;6.792;2022-07-12T14:09:34;10.75;;;2.50;;
46481;SDS011;32193;51.446;6.792;2022-07-12T14:11:59;6.25;;;2.40;;
46481;SDS011;32193;51.446;6.792;2022-07-12T14:14:27;6.60;;;2.70;;
46481;SDS011;32193;51.446;6.792;2022-07-12T14:17:11;7.20;;;2.40;;
46481;SDS011;32193;51.446;6.792;2022-07-12T14:19:37;8.55;;;2.80;;
46481;SDS011;32193;51.446;6.792;2022-07-12T14:22:03;9.27;;;2.67;;
46481;SDS011;32193;51.446;6.792;2022-07-12T14:24:29;6.68;;;1.83;;
46481;SDS011;32193;51.446;6.792;2022-07-12T14:26:54;6.10;;;1.90;;
46481;SDS011;32193;51.446;6.792;2022-07-12T14:29:20;6.63;;;3.35;;
46481;SDS011;32193;51.446;6.792;2022-07-12T14:31:46;6.72;;;2.10;;
46481;SDS011;32193;51.446;6.792;2022-07-12T14:34:12;8.00;;;2.40;;
46481;SDS011;32193;51.446;6.792;2022-07-12T14:36:37;7.43;;;2.15;;
46481;SDS011;32193;51.446;6.792;2022-07-12T14:39:03;4.88;;;2.13;;
46481;SDS011;32193;51.446;6.792;2022-07-12T14:41:29;12.15;;;2.20;;
46481;SDS011;32193;51.446;6.792;2022-07-12T14:43:55;9.27;;;2.20;;
46481;SDS011;32193;51.446;6.792;2022-07-12T14:46:21;4.88;;;2.25;;
46481;SDS011;32193;51.446;6.792;2022-07-12T14:48:47;5.25;;;2.33;;
46481;SDS011;32193;51.446;6.792;2022-07-12T14:51:13;4.95;;;1.88;;
46481;SDS011;32193;51.446;6.792;2022-07-12T14:53:39;6.82;;;1.80;;
46481;SDS011;32193;51.446;6.792;2022-07-12T14:56:06;9.90;;;2.00;;
46481;SDS011;32193;51.446;6.792;2022-07-12T14:58:32;8.82;;;2.25;;
46481;SDS011;32193;51.446;6.792;2022-07-12T15:00:58;9.55;;;2.03;;
46481;SDS011;32193;51.446;6.792;2022-07-12T15:03:24;6.25;;;2.00;;
46481;SDS011;32193;51.446;6.792;2022-07-12T15:05:52;6.60;;;1.77;;
46481;SDS011;32193;51.446;6.792;2022-07-12T15:08:18;5.28;;;1.90;;
46481;SDS011;32193;51.446;6.792;2022-07-12T15:10:43;4.88;;;1.70;;
46481;SDS011;32193;51.446;6.792;2022-07-12T15:13:09;9.45;;;2.00;;
46481;SDS011;32193;51.446;6.792;2022-07-12T15:15:35;5.60;;;1.95;;
46481;SDS011;32193;51.446;6.792;2022-07-12T15:18:01;4.82;;;1.75;;